createdAt,value
2019-04-03T00:03:27.289Z,99225.30
2019-04-03T00:08:30.761Z,99212.65
2019-04-03T00:13:34.211Z,99211.43
2019-04-03T00:18:37.663Z,99206.48
2019-04-03T00:23:41.119Z,99205.10
2019-04-03T00:28:44.571Z,99199.55
2019-04-03T00:33:48.028Z,99195.22
2019-04-03T00:38:53.916Z,99192.45
2019-04-03T00:43:56.665Z,99187.51
2019-04-03T00:49:00.110Z,99184.56
2019-04-03T00:54:03.840Z,99181.19
2019-04-03T00:59:07.322Z,99171.47
2019-04-03T01:04:10.924Z,99169.91
2019-04-03T01:09:14.380Z,99169.14
2019-04-03T01:14:17.837Z,99158.65
2019-04-03T01:19:21.360Z,99148.16
2019-04-03T01:24:24.811Z,99142.00
2019-04-03T01:29:28.292Z,99125.22
2019-04-03T01:34:31.755Z,99122.44
2019-04-03T01:39:35.342Z,99120.89
2019-04-03T01:44:38.796Z,99127.22
2019-04-03T01:49:42.248Z,99132.77
2019-04-03T01:54:45.817Z,99120.72
2019-04-03T01:59:49.249Z,99117.95
2019-04-03T02:04:52.875Z,99118.73
2019-04-03T02:09:56.361Z,99118.11
2019-04-03T02:14:59.809Z,99106.24
2019-04-03T02:20:03.345Z,99095.59
2019-04-03T02:25:06.947Z,99095.42
2019-04-03T02:30:13.035Z,99103.13
2019-04-03T02:35:16.154Z,99106.08
2019-04-03T02:40:19.934Z,99101.14
2019-04-03T02:45:24.695Z,99098.81
2019-04-03T02:50:28.917Z,99091.09
2019-04-03T02:55:32.399Z,99093.87
2019-04-03T03:00:35.859Z,99100.03
2019-04-03T03:05:39.337Z,99101.41
2019-04-03T03:10:43.068Z,99097.86
2019-04-03T03:15:46.990Z,99097.25
2019-04-03T03:20:51.498Z,99099.25
2019-04-03T03:25:56.843Z,99089.55
2019-04-03T03:31:04.586Z,99087.55
2019-04-03T03:36:07.138Z,99083.22
2019-04-03T03:41:10.835Z,99080.44
2019-04-03T03:46:15.050Z,99080.77
2019-04-03T03:51:19.598Z,99079.83
2019-04-03T03:56:23.829Z,99056.25
2019-04-03T04:01:28.544Z,99059.64
2019-04-03T04:06:35.871Z,99065.66
2019-04-03T04:11:39.890Z,99046.84
2019-04-03T04:16:43.540Z,99044.69
2019-04-03T04:21:47.263Z,99042.52
2019-04-03T04:26:50.705Z,99061.00
2019-04-03T04:31:54.174Z,99066.55
2019-04-03T04:36:57.730Z,99078.42
2019-04-03T04:42:03.473Z,99062.39
2019-04-03T04:47:06.370Z,99055.28
2019-04-03T04:52:09.841Z,99053.90
2019-04-03T04:57:13.319Z,99045.41
2019-04-03T05:02:17.836Z,99049.58
2019-04-03T05:07:21.978Z,99057.12
2019-04-03T05:12:25.441Z,99058.67
2019-04-03T05:17:28.912Z,99053.57
2019-04-03T05:22:32.379Z,99050.66
2019-04-03T05:27:35.847Z,99045.25
2019-04-03T05:32:41.175Z,99048.50
2019-04-03T05:37:44.719Z,99056.34
2019-04-03T05:42:48.143Z,99056.98
2019-04-03T05:47:51.615Z,99057.59
2019-04-03T05:52:55.083Z,99058.98
2019-04-03T05:57:58.775Z,99049.27
2019-04-03T06:03:02.426Z,99049.27
2019-04-03T06:08:05.959Z,99049.27
2019-04-03T06:13:09.397Z,99056.04
2019-04-03T06:18:12.862Z,99046.33
2019-04-03T06:23:16.431Z,99041.39
2019-04-03T06:28:20.102Z,99052.49
2019-04-03T06:33:23.847Z,99040.34
2019-04-03T06:38:27.727Z,99045.11
2019-04-03T06:43:31.454Z,99042.17
2019-04-03T06:48:36.588Z,99014.44
2019-04-03T06:53:40.254Z,99021.98
2019-04-03T06:58:44.725Z,99034.98
2019-04-03T07:03:48.476Z,99019.20
2019-04-03T07:08:51.948Z,99051.31
2019-04-03T07:13:55.817Z,99005.44
2019-04-03T07:18:59.428Z,99025.17
2019-04-03T07:24:02.897Z,99019.23
2019-04-03T07:29:06.646Z,99027.69
2019-04-03T07:34:10.430Z,99006.28
2019-04-03T07:39:14.174Z,99000.59
2019-04-03T07:44:17.734Z,99003.29
2019-04-03T07:49:21.295Z,99006.34
2019-04-03T07:54:26.358Z,99009.17
2019-04-03T07:59:29.910Z,99025.72
2019-04-03T08:04:33.382Z,99020.09
2019-04-03T08:09:36.837Z,99026.74
2019-04-03T08:14:41.195Z,99016.62
2019-04-03T08:19:46.008Z,99008.48
2019-04-03T08:24:52.744Z,99008.38
2019-04-03T08:29:54.755Z,99009.00
2019-04-03T08:34:58.205Z,99003.17
2019-04-03T08:40:02.144Z,98999.34
2019-04-03T08:45:09.296Z,98997.03
2019-04-03T08:50:13.780Z,98995.20
2019-04-03T08:55:17.262Z,98989.98
2019-04-03T09:00:22.556Z,98987.83
2019-04-03T09:05:26.203Z,98988.77
2019-04-03T09:10:31.591Z,98981.55
2019-04-03T09:15:34.909Z,98979.55
2019-04-03T09:20:38.360Z,98975.08
2019-04-03T09:25:41.810Z,98981.13
2019-04-03T09:30:47.446Z,98981.28
2019-04-03T09:35:50.442Z,98982.06
2019-04-03T09:40:53.894Z,98980.51
2019-04-03T09:45:59.326Z,98967.86
2019-04-03T09:51:02.523Z,98967.70
2019-04-03T09:56:08.050Z,98962.14
2019-04-03T10:01:13.796Z,98962.31
2019-04-03T10:06:16.510Z,98959.70
2019-04-03T10:11:20.879Z,98958.31
2019-04-03T10:16:24.763Z,98961.70
2019-04-03T10:21:28.222Z,98956.32
2019-04-03T10:26:31.871Z,98950.77
2019-04-03T10:31:35.413Z,98932.00
2019-04-03T10:36:40.158Z,98928.48
2019-04-03T10:41:44.049Z,98933.38
2019-04-03T10:46:49.364Z,98946.03
2019-04-03T10:51:52.950Z,98948.97
2019-04-03T10:56:56.460Z,98944.97
2019-04-03T11:01:59.870Z,98945.75
2019-04-03T11:07:03.324Z,98942.52
2019-04-03T11:12:09.182Z,98939.43
2019-04-03T11:17:12.051Z,98926.94
2019-04-03T11:22:16.372Z,98929.42
2019-04-03T11:27:23.097Z,98913.55
2019-04-03T11:32:25.390Z,98912.32
2019-04-03T11:37:32.137Z,98898.28
2019-04-03T11:42:34.317Z,98897.38
2019-04-03T11:47:38.077Z,98891.22
2019-04-03T11:52:41.492Z,98888.12
2019-04-03T11:57:47.352Z,98877.34
2019-04-03T12:02:50.196Z,98865.75
2019-04-03T12:07:55.608Z,98866.65
2019-04-03T12:12:59.233Z,98852.06
2019-04-03T12:18:02.949Z,98857.11
2019-04-03T12:23:06.508Z,98856.95
2019-04-03T12:28:09.965Z,98839.24
2019-04-03T12:33:13.669Z,98823.38
2019-04-03T12:38:17.249Z,98813.22
2019-04-03T12:43:20.845Z,98804.28
2019-04-03T12:48:24.412Z,98804.28
2019-04-03T12:53:27.868Z,98797.51
2019-04-03T12:58:31.316Z,98798.58
2019-04-03T13:03:36.693Z,98792.13
2019-04-03T13:08:39.956Z,98785.95
2019-04-03T13:13:43.425Z,98785.64
2019-04-03T13:18:46.872Z,98778.73
2019-04-03T13:23:50.328Z,98771.16
2019-04-03T13:28:53.785Z,98770.38
2019-04-03T13:33:57.239Z,98759.92
2019-04-03T13:39:01.550Z,98753.76
2019-04-03T13:44:05.452Z,98746.66
2019-04-03T13:49:09.426Z,98747.17
2019-04-03T13:54:12.962Z,98741.91
2019-04-03T13:59:17.714Z,98739.91
2019-04-03T14:04:22.887Z,98742.68
2019-04-03T14:09:26.380Z,98730.81
2019-04-03T14:14:29.840Z,98734.84
2019-04-03T14:19:43.285Z,98732.06
2019-04-03T14:24:44.595Z,98728.03
2019-04-03T14:29:43.920Z,98717.09
2019-04-03T14:34:47.383Z,98710.47
2019-04-03T14:39:50.931Z,98699.38
2019-04-03T14:44:54.646Z,98700.14
2019-04-03T14:49:58.654Z,98697.08
2019-04-03T14:55:17.204Z,98706.02
2019-04-03T15:00:25.292Z,98692.75
2019-04-03T15:05:16.714Z,98690.59
2019-04-03T15:10:20.793Z,98698.30
2019-04-03T15:15:24.783Z,98696.91
2019-04-03T15:20:29.624Z,98693.98
2019-04-03T15:25:34.092Z,98674.55
2019-04-03T15:30:37.518Z,98683.04
2019-04-03T15:35:41.361Z,98666.39
2019-04-03T15:40:44.808Z,98653.45
2019-04-03T15:45:49.050Z,98659.13
2019-04-03T15:50:52.497Z,98650.18
2019-04-03T15:55:55.952Z,98641.85
2019-04-03T16:00:59.537Z,98634.30
2019-04-03T16:06:04.503Z,98627.68
2019-04-03T16:11:08.154Z,98615.19
2019-04-03T16:16:11.603Z,98622.13
2019-04-03T16:21:15.067Z,98613.50
2019-04-03T16:26:18.526Z,98606.25
2019-04-03T16:31:22.454Z,98594.69
2019-04-03T16:36:25.939Z,98595.62
2019-04-03T16:41:29.464Z,98587.41
2019-04-03T16:46:32.933Z,98583.25
2019-04-03T16:51:36.869Z,98576.03
2019-04-03T16:56:40.424Z,98565.70
2019-04-03T17:01:45.622Z,98552.44
2019-04-03T17:06:49.543Z,98541.19
2019-04-03T17:11:53.591Z,98538.41
2019-04-03T17:16:57.243Z,98532.86
2019-04-03T17:22:00.940Z,98535.02
2019-04-03T17:27:04.629Z,98532.86
2019-04-03T17:32:09.007Z,98525.92
2019-04-03T17:37:13.724Z,98529.47
2019-04-03T17:42:17.324Z,98537.02
2019-04-03T17:47:20.776Z,98528.08
2019-04-03T17:52:24.247Z,98520.52
2019-04-03T17:57:27.718Z,98512.20
2019-04-03T18:02:31.197Z,98513.43
2019-04-03T18:07:37.015Z,98508.03
2019-04-03T18:12:39.860Z,98514.97
2019-04-03T18:17:43.384Z,98516.82
2019-04-03T18:22:46.796Z,98516.36
2019-04-03T18:27:50.267Z,98505.88
2019-04-03T18:32:53.739Z,98513.43
2019-04-03T18:37:57.208Z,98517.59
2019-04-03T18:43:00.678Z,98502.95
2019-04-03T18:48:04.155Z,98498.47
2019-04-03T18:53:09.585Z,98503.56
2019-04-03T18:58:12.817Z,98497.09
2019-04-03T19:03:16.286Z,98504.95
2019-04-03T19:08:19.758Z,98493.84
2019-04-03T19:13:23.237Z,98491.23
2019-04-03T19:18:26.710Z,98489.84
2019-04-03T19:23:30.175Z,98486.45
2019-04-03T19:28:34.620Z,98489.06
2019-04-03T19:33:38.513Z,98482.13
2019-04-03T19:38:41.970Z,98477.35
2019-04-03T19:43:45.798Z,98480.12
2019-04-03T19:48:49.785Z,98481.98
2019-04-03T19:53:59.069Z,98479.81
2019-04-03T19:58:59.570Z,98478.89
2019-04-03T20:04:05.227Z,98479.20
2019-04-03T20:09:10.038Z,98477.20
2019-04-03T20:14:13.507Z,98470.10
2019-04-03T20:19:16.982Z,98461.63
2019-04-03T20:24:20.449Z,98465.17
2019-04-03T20:29:23.925Z,98461.93
2019-04-03T20:34:27.397Z,98452.53
2019-04-03T20:39:33.741Z,98454.69
2019-04-03T20:44:38.636Z,98461.78
2019-04-03T20:49:43.575Z,98454.69
2019-04-03T20:54:46.453Z,98449.14
2019-04-03T20:59:58.841Z,98444.81
2019-04-03T21:04:55.116Z,98439.27
2019-04-03T21:10:00.639Z,98436.49
2019-04-03T21:15:08.773Z,98433.72
2019-04-03T21:20:09.858Z,98432.95
2019-04-03T21:25:13.333Z,98434.34
2019-04-03T21:30:16.878Z,98424.63
2019-04-03T21:35:20.339Z,98420.33
2019-04-03T21:40:23.804Z,98419.69
2019-04-03T21:45:27.267Z,98425.23
2019-04-03T21:50:30.735Z,98419.56
2019-04-03T21:55:34.827Z,98421.08
2019-04-03T22:00:59.738Z,98413.24
2019-04-03T22:06:03.214Z,98409.98
2019-04-03T22:11:06.679Z,98417.56
2019-04-03T22:16:10.221Z,98414.14
2019-04-03T22:21:13.692Z,98412.62
2019-04-03T22:26:17.154Z,98414.02
2019-04-03T22:31:20.972Z,98413.24
2019-04-03T22:36:25.827Z,98402.30
2019-04-03T22:41:29.302Z,98401.03
2019-04-03T22:46:32.777Z,98400.91
2019-04-03T22:51:37.665Z,98391.81
2019-04-03T22:56:41.506Z,98394.59
2019-04-03T23:01:44.971Z,98391.05
2019-04-03T23:06:49.724Z,98390.43
2019-04-03T23:11:53.693Z,98380.56
2019-04-03T23:16:57.158Z,98384.11
2019-04-03T23:22:00.631Z,98380.41
2019-04-03T23:27:04.265Z,98383.19
2019-04-03T23:32:07.737Z,98384.72
2019-04-03T23:37:11.206Z,98387.96
2019-04-03T23:42:14.676Z,98434.52
2019-04-03T23:47:18.145Z,98423.27
2019-04-03T23:52:21.612Z,98435.75
2019-04-03T23:57:25.083Z,98439.91
